Warning: Javascript must be enabled to use all the features on this page!


Page Loading - Please Wait...

Click to hideNews Bulletins

Peak Streamflow for Nebraska

Click to hide state-specific text

USGS 06610000 Missouri River at Omaha, NE

Douglas County, Nebraska
Hydrologic Unit Code 10230006
Latitude  41°15'32", Longitude  95°55'20" NAD27
Drainage area 322,800  square miles
Gage datum 948.97 feet above NAVD88
Output formats
Table
Graph
Tab-separated file
peakfq (watstore) format
Reselect output format
Water
Year
Date Gage
Height
(feet)
Stream-
flow
(cfs)
1881 1881-04-25 24.653  
1929 1929-06-07 14.28 198,000
1930 1930-03-15 11.906 84,400
1931 1931-06-18 10.85 52,800
1932 1932-06-19 15.12 137,000
1933 1933-05-29 13.03 102,000
1934 1934-03-05 15.006 125,000
1935 1935-07-19 16.85 99,800
1936 1936-03-23   89,200
1937 1937-06-24 18.15 111,000
1938 1938-07-10   117,000
1939 1939-04-05   141,000
1940 1940-06-05   54,600
1941 1941-06-18 17.20 107,000
1942 1942-06-11 18.30 121,000
1943 1943-04-12   200,000
1944 1944-04-16 19.40 149,000
1945 1945-03-22   106,000
1946 1946-06-24 13.20 84,700
1947 1947-07-01 19.10 150,000
1948 1948-03-28 14.00 112,000
1949 1949-04-13 20.00 183,000
1950 1950-04-27 21.24 196,000
1951 1951-04-11 18.20 152,000
1952 1952-04-18 30.20 396,000
1953 1953-06-26 13.69 112,0006
1954 1954-06-21 11.12 87,4006
1955 1955-03-13   51,5006
1956 1956-03-18   42,6006
1957 1957-06-16 9.25 59,0006
1958 1958-07-02 8.55 45,4006
1959 1959-06-01 9.77 57,0006
1960 1960-04-01 16.812 120,0006
1961 1961-06-15 7.66 41,7006
1962 1962-03-29 16.48 115,0006
1963 1963-06-05 9.97 61,7006
1964 1964-05-26 11.10 68,9006
1965 1965-04-08 11.82 69,8006
1966 1966-02-10 10.69 61,8006
1967 1967-06-16 14.03 68,4006
1968 1968-06-25 10.392 53,0006
1969 1969-04-12 16.82 100,0006
1970 1969-10-01 9.882 51,9006
1971 1971-03-14 13.942 91,9006
1972 1972-09-11 12.572 70,5006
1973 1972-11-03 9.282 59,2006
1974 1974-05-19 10.86 52,4006
1975 1975-08-18 13.66 70,2006
1976 1975-11-21 10.982 75,0006
1977 1977-08-31 10.37 51,4006
1978 1978-03-19 14.192 88,4006
1979 1979-03-19 13.26 90,0006
1980 1979-11-01 9.07 54,1006
1981 1981-06-16 9.68 47,8006
1982 1982-02-23   63,0006
1983 1983-03-08 22.416 82,2006
1984 1984-06-27 29.02 116,0006
1985 1985-04-24 22.98 70,7006
1986 1986-03-19 22.632 81,1006
1987 1986-10-12 22.57 66,0006
1988 1988-08-23   43,6006
1989 1989-09-08 21.19 54,1006
1990 1990-07-17 26.89 84,4006
1991 1991-06-15 25.37 86,1006
1992 1992-07-15 21.21 50,8006
1993 1993-07-10 30.26 115,0006
1994 1994-06-27 22.79 63,8006
1995 1995-06-03 26.31 81,1006
1996 1996-06-23 29.50 118,0006
1997 1997-04-15 26.362 110,0006
1998 1997-10-26 23.482 79,8006
1999 1999-08-07 24.172 77,2006
2000 2000-06-27 21.13 56,6006
2001 2001-04-29 23.202 69,6006
2002 2002-06-12 18.85 42,4006
2003 2003-07-11 22.07 58,4006
2004 2004-06-18 22.57 53,4006
2005 2005-06-10 19.96 47,8006
2006 2006-04-13 19.18 41,4006
2007 2007-05-06 26.52 86,1006
2008 2008-06-09 26.642 77,8006
2009 2009-07-11 21.50 52,2006
2010 2010-03-21 27.602 103,0006
2011 2011-07-02 36.29 217,0006
2012 2012-06-02 18.82 50,7006
2013 2013-05-29 23.97 70,4006
2014 2014-06-23 27.94 97,2006
2015 2014-10-02 20.572 56,5006
2016 2016-05-01 22.91 65,6006
2017 2017-05-21 22.43 61,4006
2018 2018-09-26 28.662 114,0006
2019 2019-03-18 34.102 189,0006
2020 2019-10-06 28.78 118,0006
?
  Peak Gage-Height Qualification Codes.
?
  Peak Streamflow Qualification Codes.